Time;durP1;ratioP1;P1;durP2;ratioP2;P2;SDS_P1;SDS_P2;PMS_P1;PMS_P2;Temp;Humidity;BMP_temperature;BMP_pressure;BME280_temperature;BME280_humidity;BME280_pressure;Samples;Min_cycle;Max_cycle;Signal;HPM_P1;HPM_P2
2022/10/31 00:00:45;;;;;;;0.00;0.00;;;;;;;;;;1741456;28;20238;-70
2022/10/31 00:01:38;;;;;;;0.00;0.00;;;;;;;;;;1744881;28;20217;-71
2022/10/31 00:02:29;;;;;;;0.00;0.00;;;;;;;;;;1741547;28;20239;-71
2022/10/31 00:03:21;;;;;;;0.00;0.00;;;;;;;;;;1741051;28;20202;-71
2022/10/31 00:04:12;;;;;;;0.00;0.00;;;;;;;;;;1741090;28;20260;-70
2022/10/31 00:05:05;;;;;;;0.00;0.00;;;;;;;;;;1741710;28;20199;-71
2022/10/31 00:05:57;;;;;;;0.00;0.00;;;;;;;;;;1748403;28;20206;-71
2022/10/31 00:06:49;;;;;;;0.00;0.00;;;;;;;;;;1747639;28;20234;-71
2022/10/31 00:07:40;;;;;;;0.00;0.00;;;;;;;;;;1748414;28;20245;-71
2022/10/31 00:08:31;;;;;;;0.00;0.00;;;;;;;;;;1747661;28;20276;-71
2022/10/31 00:09:23;;;;;;;0.00;0.00;;;;;;;;;;1748211;28;20198;-71
2022/10/31 00:10:14;;;;;;;0.00;0.00;;;;;;;;;;1742477;28;20289;-71
2022/10/31 00:11:10;;;;;;;0.00;0.00;;;;;;;;;;1747961;28;20259;-72
2022/10/31 00:12:01;;;;;;;0.00;0.00;;;;;;;;;;1744857;28;20281;-72
2022/10/31 00:12:53;;;;;;;0.00;0.00;;;;;;;;;;1747487;28;20245;-72
2022/10/31 00:13:44;;;;;;;0.00;0.00;;;;;;;;;;1745468;28;20256;-72
2022/10/31 00:14:36;;;;;;;0.00;0.00;;;;;;;;;;1740635;28;20257;-72
2022/10/31 00:15:27;;;;;;;0.00;0.00;;;;;;;;;;1744094;28;20676;-72
2022/10/31 00:16:19;;;;;;;0.00;0.00;;;;;;;;;;1747165;28;20228;-71
2022/10/31 00:17:11;;;;;;;0.00;0.00;;;;;;;;;;1737024;28;20203;-71
2022/10/31 00:18:02;;;;;;;0.00;0.00;;;;;;;;;;1740693;28;20510;-71
2022/10/31 00:18:54;;;;;;;0.00;0.00;;;;;;;;;;1747946;28;20255;-71
2022/10/31 00:19:45;;;;;;;0.00;0.00;;;;;;;;;;1747490;28;20252;-71
2022/10/31 00:20:38;;;;;;;0.00;0.00;;;;;;;;;;1748061;28;20202;-71
2022/10/31 00:21:30;;;;;;;0.00;0.00;;;;;;;;;;1747330;28;20615;-72
2022/10/31 00:22:23;;;;;;;0.00;0.00;;;;;;;;;;1742374;28;20246;-72
2022/10/31 00:23:14;;;;;;;0.00;0.00;;;;;;;;;;1742542;28;20240;-72
2022/10/31 00:24:06;;;;;;;0.00;0.00;;;;;;;;;;1740676;28;20249;-72
2022/10/31 00:24:58;;;;;;;0.00;0.00;;;;;;;;;;1740722;28;20226;-72
2022/10/31 00:25:50;;;;;;;0.00;0.00;;;;;;;;;;1741307;28;20621;-72
2022/10/31 00:26:41;;;;;;;0.00;0.00;;;;;;;;;;1740441;28;20234;-71
2022/10/31 00:27:33;;;;;;;0.00;0.00;;;;;;;;;;1740483;28;20307;-71
2022/10/31 00:28:24;;;;;;;0.00;0.00;;;;;;;;;;1740223;28;20278;-71
2022/10/31 00:29:16;;;;;;;0.00;0.00;;;;;;;;;;1740768;28;20237;-71
2022/10/31 00:30:07;;;;;;;0.00;0.00;;;;;;;;;;1740970;28;20230;-71
2022/10/31 00:30:59;;;;;;;0.00;0.00;;;;;;;;;;1740577;28;20256;-72
2022/10/31 00:31:51;;;;;;;0.00;0.00;;;;;;;;;;1740257;28;20238;-72
2022/10/31 00:32:43;;;;;;;0.00;0.00;;;;;;;;;;1740654;28;20378;-72
2022/10/31 00:33:36;;;;;;;0.00;0.00;;;;;;;;;;1740874;28;20279;-72
2022/10/31 00:34:27;;;;;;;0.00;0.00;;;;;;;;;;1740632;28;20242;-72
2022/10/31 00:35:19;;;;;;;0.00;0.00;;;;;;;;;;1748015;28;20221;-72
2022/10/31 00:36:11;;;;;;;0.00;0.00;;;;;;;;;;1747294;28;20588;-72
2022/10/31 00:37:05;;;;;;;0.00;0.00;;;;;;;;;;1740567;28;20206;-72
2022/10/31 00:37:56;;;;;;;0.00;0.00;;;;;;;;;;1740656;28;20296;-72
2022/10/31 00:38:48;;;;;;;0.00;0.00;;;;;;;;;;1740273;28;20611;-72
2022/10/31 00:39:39;;;;;;;0.00;0.00;;;;;;;;;;1740590;28;20230;-71
2022/10/31 00:40:31;;;;;;;0.00;0.00;;;;;;;;;;1748155;28;20221;-72
2022/10/31 00:41:22;;;;;;;0.00;0.00;;;;;;;;;;1747012;28;20244;-71
2022/10/31 00:42:14;;;;;;;0.00;0.00;;;;;;;;;;1740677;28;20281;-71
2022/10/31 00:43:05;;;;;;;0.00;0.00;;;;;;;;;;1740509;28;20226;-70
2022/10/31 00:43:58;;;;;;;0.00;0.00;;;;;;;;;;1740618;28;20294;-71
2022/10/31 00:44:49;;;;;;;0.00;0.00;;;;;;;;;;1741608;28;20238;-71
2022/10/31 00:45:41;;;;;;;0.00;0.00;;;;;;;;;;1747856;28;20551;-71
2022/10/31 00:46:32;;;;;;;0.00;0.00;;;;;;;;;;1747202;28;20287;-71
2022/10/31 00:47:24;;;;;;;0.00;0.00;;;;;;;;;;1747488;28;20241;-71
2022/10/31 00:48:15;;;;;;;0.00;0.00;;;;;;;;;;1744155;28;20570;-71
2022/10/31 00:49:07;;;;;;;0.00;0.00;;;;;;;;;;1740390;28;20210;-71
2022/10/31 00:49:58;;;;;;;0.00;0.00;;;;;;;;;;1744779;28;20244;-71
2022/10/31 00:50:50;;;;;;;0.00;0.00;;;;;;;;;;1742307;28;20521;-71
2022/10/31 00:51:41;;;;;;;0.00;0.00;;;;;;;;;;1742968;28;20242;-71
2022/10/31 00:52:33;;;;;;;0.00;0.00;;;;;;;;;;1747361;28;20198;-71
2022/10/31 00:53:26;;;;;;;0.00;0.00;;;;;;;;;;1747264;28;20210;-71
2022/10/31 00:54:17;;;;;;;0.00;0.00;;;;;;;;;;1740365;28;20318;-71
2022/10/31 00:55:09;;;;;;;0.00;0.00;;;;;;;;;;1740715;28;20202;-71
2022/10/31 00:56:00;;;;;;;0.00;0.00;;;;;;;;;;1740405;28;20289;-71
2022/10/31 00:56:52;;;;;;;0.00;0.00;;;;;;;;;;1746478;28;20297;-71
2022/10/31 00:57:43;;;;;;;0.00;0.00;;;;;;;;;;1747477;28;20391;-71
2022/10/31 00:58:35;;;;;;;0.00;0.00;;;;;;;;;;1740721;28;20204;-72
2022/10/31 00:59:26;;;;;;;0.00;0.00;;;;;;;;;;1740400;28;20262;-72
2022/10/31 01:00:18;;;;;;;0.00;0.00;;;;;;;;;;1740702;28;20266;-72
2022/10/31 01:01:09;;;;;;;0.00;0.00;;;;;;;;;;1740761;28;20302;-72
2022/10/31 01:02:01;;;;;;;0.00;0.00;;;;;;;;;;1739863;28;20305;-71
2022/10/31 01:02:52;;;;;;;0.00;0.00;;;;;;;;;;1740616;28;20233;-72
2022/10/31 01:03:43;;;;;;;0.00;0.00;;;;;;;;;;1740345;28;20203;-71
2022/10/31 01:04:35;;;;;;;0.00;0.00;;;;;;;;;;1741535;28;20203;-71
2022/10/31 01:05:27;;;;;;;0.00;0.00;;;;;;;;;;1744891;28;20259;-72
2022/10/31 01:06:19;;;;;;;0.00;0.00;;;;;;;;;;1740302;28;20338;-70
2022/10/31 01:07:11;;;;;;;0.00;0.00;;;;;;;;;;1740622;28;20231;-71
2022/10/31 01:08:04;;;;;;;0.00;0.00;;;;;;;;;;1740028;28;20213;-71
2022/10/31 01:08:55;;;;;;;0.00;0.00;;;;;;;;;;1744384;28;20230;-71
2022/10/31 01:09:47;;;;;;;0.00;0.00;;;;;;;;;;1745822;28;20238;-71
2022/10/31 01:10:38;;;;;;;0.00;0.00;;;;;;;;;;1735625;28;20246;-71
2022/10/31 01:11:30;;;;;;;0.00;0.00;;;;;;;;;;1737438;28;20241;-72
2022/10/31 01:12:21;;;;;;;0.00;0.00;;;;;;;;;;1740102;28;20243;-72
2022/10/31 01:13:12;;;;;;;0.00;0.00;;;;;;;;;;1743669;28;20202;-72
2022/10/31 01:14:04;;;;;;;0.00;0.00;;;;;;;;;;1747270;28;20225;-72
2022/10/31 01:14:55;;;;;;;0.00;0.00;;;;;;;;;;1747294;28;20691;-72
2022/10/31 01:15:53;;;;;;;0.00;0.00;;;;;;;;;;1747687;28;20234;-72
2022/10/31 01:16:45;;;;;;;0.00;0.00;;;;;;;;;;1744117;28;20292;-71
2022/10/31 01:17:36;;;;;;;0.00;0.00;;;;;;;;;;1747583;28;20325;-71
2022/10/31 01:18:28;;;;;;;0.00;0.00;;;;;;;;;;1746839;28;20213;-70
2022/10/31 01:19:20;;;;;;;0.00;0.00;;;;;;;;;;1747734;28;20230;-71
2022/10/31 01:20:13;;;;;;;0.00;0.00;;;;;;;;;;1747308;28;20225;-70
2022/10/31 01:21:05;;;;;;;0.00;0.00;;;;;;;;;;1747124;28;20289;-71
2022/10/31 01:21:57;;;;;;;0.00;0.00;;;;;;;;;;1746836;28;20225;-71
2022/10/31 01:22:48;;;;;;;0.00;0.00;;;;;;;;;;1746981;28;20600;-71
2022/10/31 01:23:41;;;;;;;0.00;0.00;;;;;;;;;;1745757;28;20226;-71
2022/10/31 01:24:32;;;;;;;0.00;0.00;;;;;;;;;;1740129;28;20320;-71
2022/10/31 01:25:24;;;;;;;0.00;0.00;;;;;;;;;;1740754;28;20629;-70
2022/10/31 01:26:17;;;;;;;0.00;0.00;;;;;;;;;;1740302;28;20753;-71
2022/10/31 01:27:08;;;;;;;0.00;0.00;;;;;;;;;;1740105;28;20256;-72
2022/10/31 01:28:00;;;;;;;0.00;0.00;;;;;;;;;;1741747;28;20234;-72
2022/10/31 01:28:52;;;;;;;0.00;0.00;;;;;;;;;;1743548;28;20241;-72
2022/10/31 01:29:44;;;;;;;0.00;0.00;;;;;;;;;;1742430;28;20227;-71
2022/10/31 01:30:35;;;;;;;0.00;0.00;;;;;;;;;;1747482;28;20233;-71
2022/10/31 01:31:28;;;;;;;0.00;0.00;;;;;;;;;;1747116;28;20263;-70
2022/10/31 01:32:20;;;;;;;0.00;0.00;;;;;;;;;;1746922;28;20206;-71
2022/10/31 01:33:11;;;;;;;0.00;0.00;;;;;;;;;;1746885;28;20230;-70
2022/10/31 01:34:03;;;;;;;0.00;0.00;;;;;;;;;;1747012;28;20305;-70
2022/10/31 01:34:54;;;;;;;0.00;0.00;;;;;;;;;;1747052;28;20293;-71
2022/10/31 01:35:46;;;;;;;0.00;0.00;;;;;;;;;;1747704;28;20293;-71
2022/10/31 01:36:38;;;;;;;0.00;0.00;;;;;;;;;;1746860;28;20241;-72
2022/10/31 01:37:30;;;;;;;0.00;0.00;;;;;;;;;;1746790;28;20209;-71
2022/10/31 01:38:21;;;;;;;0.00;0.00;;;;;;;;;;1747262;28;20297;-72
2022/10/31 01:39:16;;;;;;;0.00;0.00;;;;;;;;;;1747149;28;20198;-72
2022/10/31 01:40:07;;;;;;;0.00;0.00;;;;;;;;;;1742682;28;20293;-71
2022/10/31 01:41:00;;;;;;;0.00;0.00;;;;;;;;;;1740461;28;20739;-71
2022/10/31 01:41:52;;;;;;;0.00;0.00;;;;;;;;;;1739742;28;20708;-71
2022/10/31 01:42:44;;;;;;;0.00;0.00;;;;;;;;;;1740276;28;20289;-72
2022/10/31 01:43:42;;;;;;;0.00;0.00;;;;;;;;;;1739848;28;20234;-71
2022/10/31 01:44:51;;;;;;;0.00;0.00;;;;;;;;;;1740933;28;20227;-72
2022/10/31 01:45:44;;;;;;;0.00;0.00;;;;;;;;;;1747363;28;20236;-72
2022/10/31 01:46:38;;;;;;;0.00;0.00;;;;;;;;;;1743161;28;20237;-72
2022/10/31 01:47:43;;;;;;;0.00;0.00;;;;;;;;;;1740055;28;20238;-72
2022/10/31 01:48:35;;;;;;;0.00;0.00;;;;;;;;;;1739895;28;20697;-71
2022/10/31 01:49:29;;;;;;;0.00;0.00;;;;;;;;;;1740315;28;20241;-71
2022/10/31 01:50:28;;;;;;;0.00;0.00;;;;;;;;;;1740615;28;20199;-71
2022/10/31 01:51:21;;;;;;;0.00;0.00;;;;;;;;;;1740122;28;20808;-71
2022/10/31 01:52:15;;;;;;;0.00;0.00;;;;;;;;;;1743090;28;20203;-71
2022/10/31 01:53:07;;;;;;;0.00;0.00;;;;;;;;;;1747066;28;20241;-71
2022/10/31 01:54:02;;;;;;;0.00;0.00;;;;;;;;;;1746709;28;20198;-71
2022/10/31 01:54:57;;;;;;;0.00;0.00;;;;;;;;;;1747148;28;20762;-71
2022/10/31 01:55:49;;;;;;;0.00;0.00;;;;;;;;;;1747279;28;20214;-72
2022/10/31 01:56:41;;;;;;;0.00;0.00;;;;;;;;;;1742482;28;20298;-70
2022/10/31 01:57:33;;;;;;;0.00;0.00;;;;;;;;;;1740338;28;20206;-70
2022/10/31 01:58:26;;;;;;;0.00;0.00;;;;;;;;;;1740002;28;20211;-70
2022/10/31 01:59:19;;;;;;;0.00;0.00;;;;;;;;;;1740264;28;20293;-71
2022/10/31 02:00:12;;;;;;;0.00;0.00;;;;;;;;;;1745568;28;20233;-71
2022/10/31 02:01:03;;;;;;;0.00;0.00;;;;;;;;;;1747414;28;20703;-70
2022/10/31 02:01:56;;;;;;;0.00;0.00;;;;;;;;;;1746459;28;20287;-71
2022/10/31 02:02:47;;;;;;;0.00;0.00;;;;;;;;;;1747425;28;20644;-70
2022/10/31 02:03:39;;;;;;;0.00;0.00;;;;;;;;;;1740722;28;20264;-70
2022/10/31 02:04:30;;;;;;;0.00;0.00;;;;;;;;;;1739791;28;20597;-71
2022/10/31 02:05:23;;;;;;;0.00;0.00;;;;;;;;;;1740554;28;20241;-71
2022/10/31 02:06:19;;;;;;;0.00;0.00;;;;;;;;;;1739900;28;20226;-71
2022/10/31 02:07:13;;;;;;;0.00;0.00;;;;;;;;;;1740047;28;20245;-71
2022/10/31 02:08:06;;;;;;;0.00;0.00;;;;;;;;;;1740052;28;20238;-72
2022/10/31 02:09:00;;;;;;;0.00;0.00;;;;;;;;;;1740312;28;20621;-72
2022/10/31 02:09:52;;;;;;;0.00;0.00;;;;;;;;;;1739698;28;20299;-72
2022/10/31 02:10:45;;;;;;;0.00;0.00;;;;;;;;;;1740347;28;20211;-72
2022/10/31 02:11:37;;;;;;;0.00;0.00;;;;;;;;;;1740052;28;20298;-71
2022/10/31 02:12:28;;;;;;;0.00;0.00;;;;;;;;;;1739938;28;20207;-71
2022/10/31 02:13:21;;;;;;;0.00;0.00;;;;;;;;;;1740095;28;20191;-71
2022/10/31 02:14:12;;;;;;;0.00;0.00;;;;;;;;;;1739469;28;20241;-71
2022/10/31 02:15:05;;;;;;;0.00;0.00;;;;;;;;;;1744559;28;20217;-70
2022/10/31 02:15:57;;;;;;;0.00;0.00;;;;;;;;;;1746919;28;20289;-72
2022/10/31 02:16:49;;;;;;;0.00;0.00;;;;;;;;;;1740964;28;20280;-71
2022/10/31 02:17:40;;;;;;;0.00;0.00;;;;;;;;;;1740251;28;20289;-72
2022/10/31 02:18:32;;;;;;;0.00;0.00;;;;;;;;;;1739852;28;20583;-72
2022/10/31 02:19:26;;;;;;;0.00;0.00;;;;;;;;;;1740353;28;20294;-71
2022/10/31 02:20:19;;;;;;;0.00;0.00;;;;;;;;;;1740309;28;20576;-72
2022/10/31 02:21:15;;;;;;;0.00;0.00;;;;;;;;;;1739688;28;20199;-71
2022/10/31 02:22:11;;;;;;;0.00;0.00;;;;;;;;;;1739757;28;20511;-71
2022/10/31 02:23:13;;;;;;;0.00;0.00;;;;;;;;;;1739768;28;20241;-71
2022/10/31 02:24:22;;;;;;;0.00;0.00;;;;;;;;;;1740156;28;20195;-71
2022/10/31 02:25:23;;;;;;;0.00;0.00;;;;;;;;;;1739966;28;20230;-71
2022/10/31 02:26:30;;;;;;;0.00;0.00;;;;;;;;;;1739767;28;20183;-70
2022/10/31 02:27:38;;;;;;;0.00;0.00;;;;;;;;;;1739917;28;20679;-70
2022/10/31 02:28:49;;;;;;;0.00;0.00;;;;;;;;;;1745682;28;20607;-70
2022/10/31 02:29:48;;;;;;;0.00;0.00;;;;;;;;;;1746738;28;20289;-71
2022/10/31 02:30:42;;;;;;;0.00;0.00;;;;;;;;;;1747375;28;20198;-70
2022/10/31 02:31:39;;;;;;;0.00;0.00;;;;;;;;;;1746130;28;20201;-71
2022/10/31 02:32:34;;;;;;;0.00;0.00;;;;;;;;;;1741093;28;20199;-71
2022/10/31 02:33:28;;;;;;;0.00;0.00;;;;;;;;;;1739885;28;20648;-71
2022/10/31 02:34:22;;;;;;;0.00;0.00;;;;;;;;;;1740221;28;20190;-71
2022/10/31 02:35:17;;;;;;;0.00;0.00;;;;;;;;;;1740104;28;20218;-72
2022/10/31 02:36:12;;;;;;;0.00;0.00;;;;;;;;;;1740229;28;20260;-70
2022/10/31 02:37:09;;;;;;;0.00;0.00;;;;;;;;;;1739725;28;20664;-70
2022/10/31 02:38:04;;;;;;;0.00;0.00;;;;;;;;;;1739802;28;20224;-70
2022/10/31 02:38:59;;;;;;;0.00;0.00;;;;;;;;;;1740331;28;20238;-70
2022/10/31 02:39:55;;;;;;;0.00;0.00;;;;;;;;;;1739809;28;20213;-70
2022/10/31 02:40:51;;;;;;;0.00;0.00;;;;;;;;;;1740608;28;20241;-70
2022/10/31 02:41:47;;;;;;;0.00;0.00;;;;;;;;;;1742659;28;20206;-71
2022/10/31 02:42:43;;;;;;;0.00;0.00;;;;;;;;;;1746802;28;20285;-72
2022/10/31 02:43:38;;;;;;;0.00;0.00;;;;;;;;;;1745881;28;20218;-72
2022/10/31 02:44:31;;;;;;;0.00;0.00;;;;;;;;;;1740084;28;20278;-71
2022/10/31 02:45:27;;;;;;;0.00;0.00;;;;;;;;;;1739903;28;20203;-71
2022/10/31 02:46:23;;;;;;;0.00;0.00;;;;;;;;;;1740480;28;20235;-71
2022/10/31 02:47:17;;;;;;;0.00;0.00;;;;;;;;;;1747252;28;20198;-72
2022/10/31 02:48:10;;;;;;;0.00;0.00;;;;;;;;;;1746395;28;20213;-71
2022/10/31 02:49:06;;;;;;;0.00;0.00;;;;;;;;;;1747029;28;20290;-71
2022/10/31 02:50:00;;;;;;;0.00;0.00;;;;;;;;;;1746721;28;20290;-72
2022/10/31 02:50:54;;;;;;;0.00;0.00;;;;;;;;;;1747604;28;20612;-72
2022/10/31 02:51:46;;;;;;;0.00;0.00;;;;;;;;;;1746809;28;20241;-71
2022/10/31 02:52:38;;;;;;;0.00;0.00;;;;;;;;;;1746644;28;20204;-70
2022/10/31 02:53:32;;;;;;;0.00;0.00;;;;;;;;;;1746545;28;20214;-70
2022/10/31 02:54:25;;;;;;;0.00;0.00;;;;;;;;;;1746863;28;20201;-70
2022/10/31 02:55:31;;;;;;;0.00;0.00;;;;;;;;;;1743539;28;20273;-70
2022/10/31 02:56:23;;;;;;;0.00;0.00;;;;;;;;;;1735840;28;20291;-71
2022/10/31 02:57:15;;;;;;;0.00;0.00;;;;;;;;;;1741466;28;20254;-71
2022/10/31 02:58:10;;;;;;;0.00;0.00;;;;;;;;;;1740254;28;20234;-72
2022/10/31 02:59:02;;;;;;;0.00;0.00;;;;;;;;;;1744521;28;20565;-72
2022/10/31 02:59:55;;;;;;;0.00;0.00;;;;;;;;;;1746532;28;20391;-72
2022/10/31 03:00:51;;;;;;;0.00;0.00;;;;;;;;;;1747031;28;20301;-72
2022/10/31 03:01:55;;;;;;;0.00;0.00;;;;;;;;;;1746804;28;20226;-71
2022/10/31 03:02:53;;;;;;;0.00;0.00;;;;;;;;;;1746835;28;20264;-70
2022/10/31 03:03:52;;;;;;;0.00;0.00;;;;;;;;;;1746642;28;20194;-70
2022/10/31 03:04:56;;;;;;;0.00;0.00;;;;;;;;;;1746408;28;20278;-71
2022/10/31 03:05:51;;;;;;;0.00;0.00;;;;;;;;;;1742090;28;20262;-71
2022/10/31 03:06:45;;;;;;;0.00;0.00;;;;;;;;;;1739461;28;20250;-72
2022/10/31 03:07:41;;;;;;;0.00;0.00;;;;;;;;;;1740271;28;20310;-72
2022/10/31 03:08:35;;;;;;;0.00;0.00;;;;;;;;;;1739678;28;20238;-72
2022/10/31 03:09:29;;;;;;;0.00;0.00;;;;;;;;;;1739996;28;20318;-72
2022/10/31 03:10:25;;;;;;;0.00;0.00;;;;;;;;;;1741943;28;20974;-71
2022/10/31 03:11:19;;;;;;;0.00;0.00;;;;;;;;;;1746648;28;20199;-72
2022/10/31 03:12:12;;;;;;;0.00;0.00;;;;;;;;;;1746613;28;20236;-71
2022/10/31 03:13:09;;;;;;;0.00;0.00;;;;;;;;;;1744124;28;20196;-72
2022/10/31 03:14:03;;;;;;;0.00;0.00;;;;;;;;;;1746901;28;20229;-71
2022/10/31 03:14:58;;;;;;;0.00;0.00;;;;;;;;;;1746273;28;20287;-71
2022/10/31 03:15:50;;;;;;;0.00;0.00;;;;;;;;;;1747130;28;20663;-71
2022/10/31 03:16:47;;;;;;;0.00;0.00;;;;;;;;;;1742114;28;20210;-71
2022/10/31 03:17:42;;;;;;;0.00;0.00;;;;;;;;;;1739859;28;20224;-71
2022/10/31 03:18:39;;;;;;;0.00;0.00;;;;;;;;;;1745985;28;20273;-71
2022/10/31 03:19:31;;;;;;;0.00;0.00;;;;;;;;;;1746522;28;20323;-71
2022/10/31 03:20:25;;;;;;;0.00;0.00;;;;;;;;;;1747009;28;20189;-71
2022/10/31 03:21:19;;;;;;;0.00;0.00;;;;;;;;;;1745552;28;20209;-71
2022/10/31 03:22:16;;;;;;;0.00;0.00;;;;;;;;;;1739549;28;20222;-72
2022/10/31 03:23:09;;;;;;;0.00;0.00;;;;;;;;;;1741501;28;20229;-71
2022/10/31 03:24:02;;;;;;;0.00;0.00;;;;;;;;;;1746835;28;20293;-71
2022/10/31 03:24:54;;;;;;;0.00;0.00;;;;;;;;;;1746344;28;20234;-71
2022/10/31 03:25:45;;;;;;;0.00;0.00;;;;;;;;;;1748062;28;20198;-71
2022/10/31 03:26:39;;;;;;;0.00;0.00;;;;;;;;;;1747872;28;20291;-71
2022/10/31 03:27:31;;;;;;;0.00;0.00;;;;;;;;;;1747974;28;20256;-71
2022/10/31 03:28:27;;;;;;;0.00;0.00;;;;;;;;;;1748018;28;20270;-71
2022/10/31 03:29:20;;;;;;;0.00;0.00;;;;;;;;;;1748029;28;20252;-71
2022/10/31 03:30:13;;;;;;;0.00;0.00;;;;;;;;;;1748226;28;20254;-71
2022/10/31 03:31:05;;;;;;;0.00;0.00;;;;;;;;;;1748319;28;20243;-71
2022/10/31 03:31:59;;;;;;;0.00;0.00;;;;;;;;;;1740852;28;20256;-71
2022/10/31 03:32:52;;;;;;;0.00;0.00;;;;;;;;;;1741370;28;20241;-71
2022/10/31 03:33:46;;;;;;;0.00;0.00;;;;;;;;;;1747860;28;20579;-71
2022/10/31 03:34:40;;;;;;;0.00;0.00;;;;;;;;;;1747310;28;20245;-71
2022/10/31 03:35:34;;;;;;;0.00;0.00;;;;;;;;;;1741339;28;20229;-71
2022/10/31 03:36:26;;;;;;;0.00;0.00;;;;;;;;;;1742563;28;20585;-71
2022/10/31 03:37:19;;;;;;;0.00;0.00;;;;;;;;;;1748250;28;20527;-71
2022/10/31 03:38:10;;;;;;;0.00;0.00;;;;;;;;;;1744649;28;20316;-71
2022/10/31 03:39:03;;;;;;;0.00;0.00;;;;;;;;;;1741302;28;20199;-71
2022/10/31 03:39:55;;;;;;;0.00;0.00;;;;;;;;;;1743294;28;20195;-71
2022/10/31 03:40:48;;;;;;;0.00;0.00;;;;;;;;;;1741542;28;20207;-72
2022/10/31 03:41:41;;;;;;;0.00;0.00;;;;;;;;;;1745023;28;20639;-70
2022/10/31 03:42:34;;;;;;;0.00;0.00;;;;;;;;;;1744461;28;20202;-70
2022/10/31 03:43:26;;;;;;;0.00;0.00;;;;;;;;;;1740095;28;20297;-70
2022/10/31 03:44:20;;;;;;;0.00;0.00;;;;;;;;;;1740903;28;20210;-70
2022/10/31 03:45:13;;;;;;;0.00;0.00;;;;;;;;;;1741050;28;20222;-70
2022/10/31 03:46:06;;;;;;;0.00;0.00;;;;;;;;;;1741288;28;20575;-70
2022/10/31 03:46:57;;;;;;;0.00;0.00;;;;;;;;;;1742333;28;20241;-70
2022/10/31 03:47:49;;;;;;;0.00;0.00;;;;;;;;;;1741259;28;20687;-70
2022/10/31 03:48:40;;;;;;;0.00;0.00;;;;;;;;;;1746109;28;20241;-70
2022/10/31 03:49:34;;;;;;;0.00;0.00;;;;;;;;;;1747902;28;20206;-70
2022/10/31 03:50:28;;;;;;;0.00;0.00;;;;;;;;;;1746022;28;20680;-70
2022/10/31 03:51:24;;;;;;;0.00;0.00;;;;;;;;;;1740805;28;20214;-71
2022/10/31 03:52:19;;;;;;;0.00;0.00;;;;;;;;;;1740317;28;20222;-70
2022/10/31 03:53:14;;;;;;;0.00;0.00;;;;;;;;;;1741907;28;20199;-70
2022/10/31 03:54:09;;;;;;;0.00;0.00;;;;;;;;;;1748006;28;20294;-70
2022/10/31 03:55:07;;;;;;;0.00;0.00;;;;;;;;;;1747393;28;20202;-70
2022/10/31 03:55:59;;;;;;;0.00;0.00;;;;;;;;;;1748107;28;20221;-71
2022/10/31 03:56:52;;;;;;;0.00;0.00;;;;;;;;;;1747396;28;20202;-71
2022/10/31 03:57:47;;;;;;;0.00;0.00;;;;;;;;;;1747859;28;20226;-71
2022/10/31 03:58:44;;;;;;;0.00;0.00;;;;;;;;;;1747732;28;20213;-71
2022/10/31 03:59:37;;;;;;;0.00;0.00;;;;;;;;;;1746934;28;20253;-71
2022/10/31 04:00:31;;;;;;;0.00;0.00;;;;;;;;;;1741107;28;20508;-71
2022/10/31 04:01:22;;;;;;;0.00;0.00;;;;;;;;;;1740527;28;20241;-71
2022/10/31 04:02:16;;;;;;;0.00;0.00;;;;;;;;;;1740772;28;20190;-71
2022/10/31 04:03:10;;;;;;;0.00;0.00;;;;;;;;;;1742499;28;20338;-71
2022/10/31 04:04:03;;;;;;;0.00;0.00;;;;;;;;;;1748053;28;20263;-71
2022/10/31 04:04:56;;;;;;;0.00;0.00;;;;;;;;;;1747794;28;20654;-71
2022/10/31 04:05:50;;;;;;;0.00;0.00;;;;;;;;;;1748163;28;20206;-71
2022/10/31 04:06:42;;;;;;;0.00;0.00;;;;;;;;;;1747731;28;20241;-71
2022/10/31 04:07:38;;;;;;;0.00;0.00;;;;;;;;;;1747701;28;20582;-71
2022/10/31 04:08:31;;;;;;;0.00;0.00;;;;;;;;;;1747432;28;20230;-71
2022/10/31 04:09:23;;;;;;;0.00;0.00;;;;;;;;;;1747938;28;20651;-71
2022/10/31 04:10:15;;;;;;;0.00;0.00;;;;;;;;;;1747982;28;20206;-71
2022/10/31 04:11:09;;;;;;;0.00;0.00;;;;;;;;;;1748105;28;20210;-71
2022/10/31 04:12:01;;;;;;;0.00;0.00;;;;;;;;;;1747215;28;20237;-71
2022/10/31 04:12:56;;;;;;;0.00;0.00;;;;;;;;;;1747572;28;20206;-71
2022/10/31 04:13:48;;;;;;;0.00;0.00;;;;;;;;;;1747298;28;20242;-71
2022/10/31 04:14:41;;;;;;;0.00;0.00;;;;;;;;;;1747719;28;20228;-71
2022/10/31 04:15:32;;;;;;;0.00;0.00;;;;;;;;;;1748116;28;20309;-71
2022/10/31 04:16:24;;;;;;;0.00;0.00;;;;;;;;;;1747697;28;20210;-70
2022/10/31 04:17:18;;;;;;;0.00;0.00;;;;;;;;;;1747989;28;20753;-70
2022/10/31 04:18:09;;;;;;;0.00;0.00;;;;;;;;;;1746439;28;20788;-70
2022/10/31 04:19:01;;;;;;;0.00;0.00;;;;;;;;;;1740727;28;20580;-70
2022/10/31 04:19:52;;;;;;;0.00;0.00;;;;;;;;;;1740365;28;20285;-70
2022/10/31 04:20:45;;;;;;;0.00;0.00;;;;;;;;;;1741334;28;20203;-70
2022/10/31 04:21:36;;;;;;;0.00;0.00;;;;;;;;;;1744206;28;20539;-70
2022/10/31 04:22:28;;;;;;;0.00;0.00;;;;;;;;;;1747236;28;20202;-70
2022/10/31 04:23:25;;;;;;;0.00;0.00;;;;;;;;;;1743497;28;20245;-70
2022/10/31 04:24:17;;;;;;;0.00;0.00;;;;;;;;;;1740598;28;20202;-71
2022/10/31 04:25:09;;;;;;;0.00;0.00;;;;;;;;;;1741080;28;20703;-70
2022/10/31 04:26:01;;;;;;;0.00;0.00;;;;;;;;;;1740868;28;20210;-70
2022/10/31 04:26:52;;;;;;;0.00;0.00;;;;;;;;;;1740551;28;20674;-70
2022/10/31 04:27:44;;;;;;;0.00;0.00;;;;;;;;;;1741024;28;20230;-70
2022/10/31 04:28:35;;;;;;;0.00;0.00;;;;;;;;;;1740243;28;20297;-70
2022/10/31 04:29:27;;;;;;;0.00;0.00;;;;;;;;;;1740844;28;20294;-70
2022/10/31 04:30:18;;;;;;;0.00;0.00;;;;;;;;;;1739276;28;20265;-70
2022/10/31 04:31:11;;;;;;;0.00;0.00;;;;;;;;;;1740471;28;20260;-71
2022/10/31 04:32:02;;;;;;;0.00;0.00;;;;;;;;;;1740265;28;20237;-71
2022/10/31 04:32:54;;;;;;;0.00;0.00;;;;;;;;;;1740511;28;20795;-71
2022/10/31 04:33:45;;;;;;;0.00;0.00;;;;;;;;;;1740794;28;20668;-71
2022/10/31 04:34:36;;;;;;;0.00;0.00;;;;;;;;;;1740164;28;20195;-71
2022/10/31 04:35:28;;;;;;;0.00;0.00;;;;;;;;;;1741001;28;20237;-71
2022/10/31 04:36:21;;;;;;;0.00;0.00;;;;;;;;;;1740713;28;20721;-70
2022/10/31 04:37:12;;;;;;;0.00;0.00;;;;;;;;;;1739981;28;20586;-70
2022/10/31 04:38:04;;;;;;;0.00;0.00;;;;;;;;;;1740681;28;20195;-70
2022/10/31 04:38:55;;;;;;;0.00;0.00;;;;;;;;;;1740624;28;20246;-70
2022/10/31 04:39:47;;;;;;;0.00;0.00;;;;;;;;;;1740339;28;20232;-70
2022/10/31 04:40:38;;;;;;;0.00;0.00;;;;;;;;;;1741043;28;20298;-71
2022/10/31 04:41:30;;;;;;;0.00;0.00;;;;;;;;;;1740498;28;20230;-70
2022/10/31 04:42:21;;;;;;;0.00;0.00;;;;;;;;;;1740636;28;20249;-70
2022/10/31 04:43:14;;;;;;;0.00;0.00;;;;;;;;;;1740339;28;20203;-70
2022/10/31 04:44:05;;;;;;;0.00;0.00;;;;;;;;;;1740936;28;20549;-70
2022/10/31 04:44:57;;;;;;;0.00;0.00;;;;;;;;;;1740359;28;20214;-70
2022/10/31 04:45:48;;;;;;;0.00;0.00;;;;;;;;;;1746191;28;20240;-70
2022/10/31 04:46:39;;;;;;;0.00;0.00;;;;;;;;;;1747513;28;20661;-70
2022/10/31 04:47:32;;;;;;;0.00;0.00;;;;;;;;;;1747515;28;20503;-70
2022/10/31 04:48:23;;;;;;;0.00;0.00;;;;;;;;;;1747583;28;20842;-70
2022/10/31 04:49:15;;;;;;;0.00;0.00;;;;;;;;;;1747362;28;20202;-70
2022/10/31 04:50:06;;;;;;;0.00;0.00;;;;;;;;;;1747764;28;20230;-70
2022/10/31 04:51:01;;;;;;;0.00;0.00;;;;;;;;;;1747452;28;20252;-71
2022/10/31 04:51:54;;;;;;;0.00;0.00;;;;;;;;;;1746898;28;20541;-71
2022/10/31 04:52:46;;;;;;;0.00;0.00;;;;;;;;;;1747665;28;20243;-71
2022/10/31 04:53:37;;;;;;;0.00;0.00;;;;;;;;;;1747176;28;20245;-71
2022/10/31 04:54:29;;;;;;;0.00;0.00;;;;;;;;;;1747772;28;20545;-71
2022/10/31 04:55:21;;;;;;;0.00;0.00;;;;;;;;;;1747517;28;20536;-71
2022/10/31 04:56:13;;;;;;;0.00;0.00;;;;;;;;;;1747217;28;20199;-70
2022/10/31 04:57:04;;;;;;;0.00;0.00;;;;;;;;;;1747406;28;20240;-70
2022/10/31 04:57:56;;;;;;;0.00;0.00;;;;;;;;;;1747227;28;20226;-70
2022/10/31 04:58:47;;;;;;;0.00;0.00;;;;;;;;;;1747514;28;20573;-70
2022/10/31 04:59:39;;;;;;;0.00;0.00;;;;;;;;;;1747394;28;20421;-70
2022/10/31 05:00:30;;;;;;;0.00;0.00;;;;;;;;;;1747655;28;20261;-70
2022/10/31 05:01:22;;;;;;;0.00;0.00;;;;;;;;;;1747407;28;20355;-70
2022/10/31 05:02:13;;;;;;;0.00;0.00;;;;;;;;;;1736755;28;20384;-70
2022/10/31 05:03:05;;;;;;;0.00;0.00;;;;;;;;;;1740547;28;20206;-70
2022/10/31 05:03:56;;;;;;;0.00;0.00;;;;;;;;;;1740367;28;20245;-70
2022/10/31 05:04:48;;;;;;;0.00;0.00;;;;;;;;;;1740405;28;20541;-70
2022/10/31 05:05:39;;;;;;;0.00;0.00;;;;;;;;;;1740708;28;20656;-70
2022/10/31 05:06:31;;;;;;;0.00;0.00;;;;;;;;;;1740081;28;20213;-71
2022/10/31 05:07:23;;;;;;;0.00;0.00;;;;;;;;;;1740573;28;20203;-71
2022/10/31 05:08:15;;;;;;;0.00;0.00;;;;;;;;;;1740220;28;20246;-71
2022/10/31 05:09:07;;;;;;;0.00;0.00;;;;;;;;;;1740707;28;20244;-71
2022/10/31 05:09:59;;;;;;;0.00;0.00;;;;;;;;;;1740333;28;20209;-71
2022/10/31 05:10:50;;;;;;;0.00;0.00;;;;;;;;;;1741046;28;20244;-71
2022/10/31 05:11:42;;;;;;;0.00;0.00;;;;;;;;;;1740470;28;20333;-70
2022/10/31 05:12:33;;;;;;;0.00;0.00;;;;;;;;;;1740118;28;20643;-70
2022/10/31 05:13:25;;;;;;;0.00;0.00;;;;;;;;;;1740355;28;20207;-71
2022/10/31 05:14:16;;;;;;;0.00;0.00;;;;;;;;;;1740380;28;20218;-70
2022/10/31 05:15:07;;;;;;;0.00;0.00;;;;;;;;;;1740562;28;20536;-70
2022/10/31 05:15:59;;;;;;;0.00;0.00;;;;;;;;;;1740411;28;20660;-70
2022/10/31 05:16:50;;;;;;;0.00;0.00;;;;;;;;;;1740049;28;20340;-70
2022/10/31 05:17:42;;;;;;;0.00;0.00;;;;;;;;;;1740427;28;20238;-70
2022/10/31 05:18:33;;;;;;;0.00;0.00;;;;;;;;;;1739958;28;20250;-70